<?xml version="1.0" encoding="UTF-8" standalone="no" ?>
<gpx xmlns="http://www.topografix.com/GPX/1/1" xmlns:xsi="http://www.w3.org/2001/XMLSchema-instance" xsi:schemaLocation="http://www.topografix.com/GPX/1/1 http://www.topografix.com/GPX/1/1/gpx.xsd" version="1.1" creator="VisuGPX - https://www.visugpx.com">
  <metadata>
    <name>2024 05 22 Parcours Total 2024</name>
  </metadata>
  <trk>
    <name><![CDATA[VTT7 B1]]></name>
    <extensions>
      <line xmlns="http://www.topografix.com/GPX/gpx_style/0/2">
        <color>ff0000</color>
        <width>4</width>
      </line>
    </extensions>
    <trkseg>
      <trkpt lat="48.13475" lon="3.31695">
        <ele>107.4</ele>
        <time>2023-09-16T09:17:11Z</time>
      </trkpt>
      <trkpt lat="48.13468" lon="3.31737">
        <ele>109.9</ele>
        <time>2023-09-16T09:17:19Z</time>
      </trkpt>
      <trkpt lat="48.13471" lon="3.31754">
        <ele>111</ele>
        <time>2023-09-16T09:17:29Z</time>
      </trkpt>
      <trkpt lat="48.13476" lon="3.31771">
        <ele>114.5</ele>
        <time>2023-09-16T09:17:38Z</time>
      </trkpt>
      <trkpt lat="48.13476" lon="3.31783">
        <ele>116.2</ele>
        <time>2023-09-16T09:17:45Z</time>
      </trkpt>
      <trkpt lat="48.13477" lon="3.31789">
        <ele>117.1</ele>
        <time>2023-09-16T09:17:52Z</time>
      </trkpt>
      <trkpt lat="48.13479" lon="3.31792">
        <ele>117.8</ele>
        <time>2023-09-16T09:18:01Z</time>
      </trkpt>
      <trkpt lat="48.1348" lon="3.31798">
        <ele>118.6</ele>
        <time>2023-09-16T09:18:11Z</time>
      </trkpt>
      <trkpt lat="48.13481" lon="3.31801">
        <ele>119.1</ele>
        <time>2023-09-16T09:18:19Z</time>
      </trkpt>
      <trkpt lat="48.13479" lon="3.31811">
        <ele>119.8</ele>
        <time>2023-09-16T09:18:25Z</time>
      </trkpt>
      <trkpt lat="48.13479" lon="3.31824">
        <ele>121.2</ele>
        <time>2023-09-16T09:18:34Z</time>
      </trkpt>
      <trkpt lat="48.13478" lon="3.31834">
        <ele>122.1</ele>
        <time>2023-09-16T09:18:40Z</time>
      </trkpt>
      <trkpt lat="48.13477" lon="3.3184">
        <ele>122.8</ele>
        <time>2023-09-16T09:18:44Z</time>
      </trkpt>
      <trkpt lat="48.13479" lon="3.31857">
        <ele>125.4</ele>
        <time>2023-09-16T09:18:53Z</time>
      </trkpt>
      <trkpt lat="48.13479" lon="3.31866">
        <ele>126.6</ele>
        <time>2023-09-16T09:18:59Z</time>
      </trkpt>
      <trkpt lat="48.1348" lon="3.31877">
        <ele>128.1</ele>
        <time>2023-09-16T09:19:06Z</time>
      </trkpt>
      <trkpt lat="48.13482" lon="3.31886">
        <ele>129.4</ele>
        <time>2023-09-16T09:19:12Z</time>
      </trkpt>
      <trkpt lat="48.13483" lon="3.31895">
        <ele>130.3</ele>
        <time>2023-09-16T09:19:19Z</time>
      </trkpt>
      <trkpt lat="48.13485" lon="3.31904">
        <ele>131.1</ele>
        <time>2023-09-16T09:19:26Z</time>
      </trkpt>
      <trkpt lat="48.13485" lon="3.31908">
        <ele>131.4</ele>
        <time>2023-09-16T09:19:29Z</time>
      </trkpt>
      <trkpt lat="48.13486" lon="3.31918">
        <ele>132.1</ele>
        <time>2023-09-16T09:19:35Z</time>
      </trkpt>
      <trkpt lat="48.13487" lon="3.31923">
        <ele>132.3</ele>
        <time>2023-09-16T09:19:45Z</time>
      </trkpt>
      <trkpt lat="48.13488" lon="3.3193">
        <ele>132.7</ele>
        <time>2023-09-16T09:19:54Z</time>
      </trkpt>
      <trkpt lat="48.13488" lon="3.31932">
        <ele>132.8</ele>
        <time>2023-09-16T09:20:00Z</time>
      </trkpt>
      <trkpt lat="48.1349" lon="3.3194">
        <ele>133.1</ele>
        <time>2023-09-16T09:20:10Z</time>
      </trkpt>
      <trkpt lat="48.13492" lon="3.3195">
        <ele>134.1</ele>
        <time>2023-09-16T09:20:18Z</time>
      </trkpt>
      <trkpt lat="48.13493" lon="3.31962">
        <ele>135.8</ele>
        <time>2023-09-16T09:20:25Z</time>
      </trkpt>
      <trkpt lat="48.13495" lon="3.31981">
        <ele>138.4</ele>
        <time>2023-09-16T09:20:35Z</time>
      </trkpt>
      <trkpt lat="48.13495" lon="3.31994">
        <ele>140.2</ele>
        <time>2023-09-16T09:20:42Z</time>
      </trkpt>
      <trkpt lat="48.13496" lon="3.32001">
        <ele>141.1</ele>
        <time>2023-09-16T09:20:50Z</time>
      </trkpt>
      <trkpt lat="48.13494" lon="3.32009">
        <ele>142</ele>
        <time>2023-09-16T09:21:05Z</time>
      </trkpt>
      <trkpt lat="48.13492" lon="3.32021">
        <ele>143.3</ele>
        <time>2023-09-16T09:21:12Z</time>
      </trkpt>
      <trkpt lat="48.13489" lon="3.32029">
        <ele>144.1</ele>
        <time>2023-09-16T09:21:17Z</time>
      </trkpt>
      <trkpt lat="48.13487" lon="3.3204">
        <ele>145.1</ele>
        <time>2023-09-16T09:21:23Z</time>
      </trkpt>
      <trkpt lat="48.13486" lon="3.32042">
        <ele>145.3</ele>
        <time>2023-09-16T09:21:24Z</time>
      </trkpt>
      <trkpt lat="48.13483" lon="3.3205">
        <ele>146.1</ele>
        <time>2023-09-16T09:21:32Z</time>
      </trkpt>
      <trkpt lat="48.13482" lon="3.32052">
        <ele>146.3</ele>
        <time>2023-09-16T09:21:49Z</time>
      </trkpt>
      <trkpt lat="48.13481" lon="3.32056">
        <ele>146.7</ele>
        <time>2023-09-16T09:21:57Z</time>
      </trkpt>
      <trkpt lat="48.1348" lon="3.32059">
        <ele>147</ele>
        <time>2023-09-16T09:22:04Z</time>
      </trkpt>
      <trkpt lat="48.1348" lon="3.32062">
        <ele>147.3</ele>
        <time>2023-09-16T09:22:13Z</time>
      </trkpt>
      <trkpt lat="48.13482" lon="3.32071">
        <ele>148.2</ele>
        <time>2023-09-16T09:22:22Z</time>
      </trkpt>
      <trkpt lat="48.1348" lon="3.32075">
        <ele>148.5</ele>
        <time>2023-09-16T09:22:31Z</time>
      </trkpt>
      <trkpt lat="48.13479" lon="3.32085">
        <ele>149.4</ele>
        <time>2023-09-16T09:22:40Z</time>
      </trkpt>
      <trkpt lat="48.1348" lon="3.32097">
        <ele>150.6</ele>
        <time>2023-09-16T09:22:49Z</time>
      </trkpt>
      <trkpt lat="48.13485" lon="3.32104">
        <ele>151.3</ele>
        <time>2023-09-16T09:22:58Z</time>
      </trkpt>
      <trkpt lat="48.13488" lon="3.32115">
        <ele>152.4</ele>
        <time>2023-09-16T09:23:06Z</time>
      </trkpt>
      <trkpt lat="48.13493" lon="3.32122">
        <ele>153.2</ele>
        <time>2023-09-16T09:23:16Z</time>
      </trkpt>
      <trkpt lat="48.13496" lon="3.32126">
        <ele>153.6</ele>
        <time>2023-09-16T09:23:24Z</time>
      </trkpt>
      <trkpt lat="48.13499" lon="3.32128">
        <ele>153.8</ele>
        <time>2023-09-16T09:23:32Z</time>
      </trkpt>
      <trkpt lat="48.13505" lon="3.32128">
        <ele>154.3</ele>
        <time>2023-09-16T09:23:36Z</time>
      </trkpt>
      <trkpt lat="48.13515" lon="3.32128">
        <ele>155.1</ele>
        <time>2023-09-16T09:23:44Z</time>
      </trkpt>
      <trkpt lat="48.13525" lon="3.3213">
        <ele>156.1</ele>
        <time>2023-09-16T09:23:52Z</time>
      </trkpt>
      <trkpt lat="48.13531" lon="3.32131">
        <ele>156.7</ele>
        <time>2023-09-16T09:23:59Z</time>
      </trkpt>
      <trkpt lat="48.13538" lon="3.32131">
        <ele>157.3</ele>
        <time>2023-09-16T09:24:05Z</time>
      </trkpt>
      <trkpt lat="48.1355" lon="3.32133">
        <ele>158.3</ele>
        <time>2023-09-16T09:24:15Z</time>
      </trkpt>
      <trkpt lat="48.13561" lon="3.32136">
        <ele>159.5</ele>
        <time>2023-09-16T09:24:24Z</time>
      </trkpt>
      <trkpt lat="48.13569" lon="3.32143">
        <ele>160.7</ele>
        <time>2023-09-16T09:24:32Z</time>
      </trkpt>
      <trkpt lat="48.13578" lon="3.32143">
        <ele>161.6</ele>
        <time>2023-09-16T09:24:41Z</time>
      </trkpt>
      <trkpt lat="48.13585" lon="3.32146">
        <ele>162.4</ele>
        <time>2023-09-16T09:24:48Z</time>
      </trkpt>
      <trkpt lat="48.13586" lon="3.32147">
        <ele>162.5</ele>
        <time>2023-09-16T09:24:49Z</time>
      </trkpt>
      <trkpt lat="48.13596" lon="3.32145">
        <ele>163.1</ele>
        <time>2023-09-16T09:24:57Z</time>
      </trkpt>
      <trkpt lat="48.13597" lon="3.32144">
        <ele>163.2</ele>
        <time>2023-09-16T09:24:58Z</time>
      </trkpt>
      <trkpt lat="48.13606" lon="3.32135">
        <ele>163.5</ele>
        <time>2023-09-16T09:25:04Z</time>
      </trkpt>
      <trkpt lat="48.13613" lon="3.32126">
        <ele>163.6</ele>
        <time>2023-09-16T09:25:09Z</time>
      </trkpt>
      <trkpt lat="48.13616" lon="3.32109">
        <ele>163.3</ele>
        <time>2023-09-16T09:25:16Z</time>
      </trkpt>
      <trkpt lat="48.13616" lon="3.32104">
        <ele>163.1</ele>
        <time>2023-09-16T09:25:18Z</time>
      </trkpt>
      <trkpt lat="48.13616" lon="3.32097">
        <ele>162.8</ele>
        <time>2023-09-16T09:25:21Z</time>
      </trkpt>
      <trkpt lat="48.13615" lon="3.32079">
        <ele>162</ele>
        <time>2023-09-16T09:25:28Z</time>
      </trkpt>
      <trkpt lat="48.13619" lon="3.32059">
        <ele>161.1</ele>
        <time>2023-09-16T09:25:37Z</time>
      </trkpt>
      <trkpt lat="48.13626" lon="3.32048">
        <ele>161.2</ele>
        <time>2023-09-16T09:25:43Z</time>
      </trkpt>
      <trkpt lat="48.13631" lon="3.32048">
        <ele>161.7</ele>
        <time>2023-09-16T09:25:49Z</time>
      </trkpt>
      <trkpt lat="48.13639" lon="3.32049">
        <ele>162.5</ele>
        <time>2023-09-16T09:25:57Z</time>
      </trkpt>
      <trkpt lat="48.13647" lon="3.32047">
        <ele>162.7</ele>
        <time>2023-09-16T09:26:04Z</time>
      </trkpt>
      <trkpt lat="48.1365" lon="3.32046">
        <ele>162.7</ele>
        <time>2023-09-16T09:26:07Z</time>
      </trkpt>
      <trkpt lat="48.13657" lon="3.32048">
        <ele>163.1</ele>
        <time>2023-09-16T09:26:12Z</time>
      </trkpt>
      <trkpt lat="48.13663" lon="3.32052">
        <ele>163.6</ele>
        <time>2023-09-16T09:26:16Z</time>
      </trkpt>
      <trkpt lat="48.13675" lon="3.32059">
        <ele>164.4</ele>
        <time>2023-09-16T09:26:26Z</time>
      </trkpt>
      <trkpt lat="48.13684" lon="3.32064">
        <ele>164.9</ele>
        <time>2023-09-16T09:26:34Z</time>
      </trkpt>
      <trkpt lat="48.13691" lon="3.32057">
        <ele>164.9</ele>
        <time>2023-09-16T09:26:41Z</time>
      </trkpt>
      <trkpt lat="48.13698" lon="3.32049">
        <ele>164.6</ele>
        <time>2023-09-16T09:26:46Z</time>
      </trkpt>
      <trkpt lat="48.13707" lon="3.32044">
        <ele>164.4</ele>
        <time>2023-09-16T09:26:52Z</time>
      </trkpt>
      <trkpt lat="48.1371" lon="3.32035">
        <ele>163.9</ele>
        <time>2023-09-16T09:26:59Z</time>
      </trkpt>
      <trkpt lat="48.13711" lon="3.32028">
        <ele>163.6</ele>
        <time>2023-09-16T09:27:05Z</time>
      </trkpt>
      <trkpt lat="48.13712" lon="3.32027">
        <ele>163.6</ele>
        <time>2023-09-16T09:27:06Z</time>
      </trkpt>
      <trkpt lat="48.13713" lon="3.32017">
        <ele>162.9</ele>
        <time>2023-09-16T09:27:10Z</time>
      </trkpt>
      <trkpt lat="48.13717" lon="3.31992">
        <ele>161.2</ele>
        <time>2023-09-16T09:27:17Z</time>
      </trkpt>
      <trkpt lat="48.13723" lon="3.31981">
        <ele>160.6</ele>
        <time>2023-09-16T09:27:22Z</time>
      </trkpt>
      <trkpt lat="48.13724" lon="3.3198">
        <ele>160.6</ele>
        <time>2023-09-16T09:27:24Z</time>
      </trkpt>
      <trkpt lat="48.13732" lon="3.31979">
        <ele>160.5</ele>
        <time>2023-09-16T09:27:29Z</time>
      </trkpt>
      <trkpt lat="48.13734" lon="3.31977">
        <ele>160.3</ele>
        <time>2023-09-16T09:27:30Z</time>
      </trkpt>
      <trkpt lat="48.13742" lon="3.3196">
        <ele>159.1</ele>
        <time>2023-09-16T09:27:35Z</time>
      </trkpt>
      <trkpt lat="48.13749" lon="3.3195">
        <ele>158.4</ele>
        <time>2023-09-16T09:27:39Z</time>
      </trkpt>
      <trkpt lat="48.1375" lon="3.3195">
        <ele>158.4</ele>
        <time>2023-09-16T09:27:40Z</time>
      </trkpt>
      <trkpt lat="48.13754" lon="3.31948">
        <ele>158.1</ele>
        <time>2023-09-16T09:27:43Z</time>
      </trkpt>
      <trkpt lat="48.13763" lon="3.31948">
        <ele>157.8</ele>
        <time>2023-09-16T09:27:49Z</time>
      </trkpt>
      <trkpt lat="48.13767" lon="3.31944">
        <ele>157.3</ele>
        <time>2023-09-16T09:27:52Z</time>
      </trkpt>
      <trkpt lat="48.13776" lon="3.31936">
        <ele>156.2</ele>
        <time>2023-09-16T09:27:57Z</time>
      </trkpt>
      <trkpt lat="48.13793" lon="3.31922">
        <ele>152.9</ele>
        <time>2023-09-16T09:28:05Z</time>
      </trkpt>
      <trkpt lat="48.13798" lon="3.31921">
        <ele>152.3</ele>
        <time>2023-09-16T09:28:11Z</time>
      </trkpt>
      <trkpt lat="48.13805" lon="3.3192">
        <ele>151.4</ele>
        <time>2023-09-16T09:28:19Z</time>
      </trkpt>
      <trkpt lat="48.13819" lon="3.31914">
        <ele>148.4</ele>
        <time>2023-09-16T09:28:25Z</time>
      </trkpt>
      <trkpt lat="48.13826" lon="3.31905">
        <ele>146.5</ele>
        <time>2023-09-16T09:28:31Z</time>
      </trkpt>
      <trkpt lat="48.13829" lon="3.31904">
        <ele>145.9</ele>
        <time>2023-09-16T09:28:33Z</time>
      </trkpt>
      <trkpt lat="48.13833" lon="3.3191">
        <ele>145.6</ele>
        <time>2023-09-16T09:28:37Z</time>
      </trkpt>
      <trkpt lat="48.13839" lon="3.3193">
        <ele>146.9</ele>
        <time>2023-09-16T09:28:45Z</time>
      </trkpt>
      <trkpt lat="48.13843" lon="3.31933">
        <ele>146.6</ele>
        <time>2023-09-16T09:28:51Z</time>
      </trkpt>
      <trkpt lat="48.13844" lon="3.31932">
        <ele>146.3</ele>
        <time>2023-09-16T09:28:54Z</time>
      </trkpt>
      <trkpt lat="48.1385" lon="3.31917">
        <ele>143</ele>
        <time>2023-09-16T09:29:01Z</time>
      </trkpt>
      <trkpt lat="48.13858" lon="3.3191">
        <ele>140.9</ele>
        <time>2023-09-16T09:29:09Z</time>
      </trkpt>
      <trkpt lat="48.1386" lon="3.3191">
        <ele>140.5</ele>
        <time>2023-09-16T09:29:11Z</time>
      </trkpt>
      <trkpt lat="48.13867" lon="3.3191">
        <ele>139.4</ele>
        <time>2023-09-16T09:29:16Z</time>
      </trkpt>
      <trkpt lat="48.13873" lon="3.31913">
        <ele>138.8</ele>
        <time>2023-09-16T09:29:22Z</time>
      </trkpt>
      <trkpt lat="48.13876" lon="3.31915">
        <ele>138.6</ele>
        <time>2023-09-16T09:29:31Z</time>
      </trkpt>
      <trkpt lat="48.13882" lon="3.31915">
        <ele>137.8</ele>
        <time>2023-09-16T09:29:38Z</time>
      </trkpt>
      <trkpt lat="48.13885" lon="3.31916">
        <ele>137.5</ele>
        <time>2023-09-16T09:29:40Z</time>
      </trkpt>
      <trkpt lat="48.13891" lon="3.31915">
        <ele>136.6</ele>
        <time>2023-09-16T09:29:42Z</time>
      </trkpt>
      <trkpt lat="48.13896" lon="3.31909">
        <ele>135.4</ele>
        <time>2023-09-16T09:29:45Z</time>
      </trkpt>
      <trkpt lat="48.13899" lon="3.31907">
        <ele>134.9</ele>
        <time>2023-09-16T09:29:47Z</time>
      </trkpt>
      <trkpt lat="48.13912" lon="3.31904">
        <ele>133.5</ele>
        <time>2023-09-16T09:29:55Z</time>
      </trkpt>
      <trkpt lat="48.1392" lon="3.31904">
        <ele>133.2</ele>
        <time>2023-09-16T09:29:59Z</time>
      </trkpt>
      <trkpt lat="48.13929" lon="3.31902">
        <ele>132.9</ele>
        <time>2023-09-16T09:30:06Z</time>
      </trkpt>
      <trkpt lat="48.1394" lon="3.31903">
        <ele>133</ele>
        <time>2023-09-16T09:30:11Z</time>
      </trkpt>
      <trkpt lat="48.13943" lon="3.31902">
        <ele>132.9</ele>
        <time>2023-09-16T09:30:13Z</time>
      </trkpt>
      <trkpt lat="48.13955" lon="3.31899">
        <ele>132.5</ele>
        <time>2023-09-16T09:30:20Z</time>
      </trkpt>
      <trkpt lat="48.13963" lon="3.31895">
        <ele>131.9</ele>
        <time>2023-09-16T09:30:24Z</time>
      </trkpt>
      <trkpt lat="48.13972" lon="3.31895">
        <ele>131.9</ele>
        <time>2023-09-16T09:30:27Z</time>
      </trkpt>
      <trkpt lat="48.13982" lon="3.31892">
        <ele>131.1</ele>
        <time>2023-09-16T09:30:33Z</time>
      </trkpt>
      <trkpt lat="48.13992" lon="3.3189">
        <ele>130.5</ele>
        <time>2023-09-16T09:30:39Z</time>
      </trkpt>
      <trkpt lat="48.14006" lon="3.31896">
        <ele>131.7</ele>
        <time>2023-09-16T09:30:46Z</time>
      </trkpt>
      <trkpt lat="48.14014" lon="3.31898">
        <ele>132.5</ele>
        <time>2023-09-16T09:30:51Z</time>
      </trkpt>
      <trkpt lat="48.1402" lon="3.31897">
        <ele>132.7</ele>
        <time>2023-09-16T09:30:55Z</time>
      </trkpt>
      <trkpt lat="48.14019" lon="3.31894">
        <ele>132.2</ele>
        <time>2023-09-16T09:32:16Z</time>
      </trkpt>
      <trkpt lat="48.14018" lon="3.31893">
        <ele>131.9</ele>
        <time>2023-09-16T09:32:25Z</time>
      </trkpt>
      <trkpt lat="48.14018" lon="3.31891">
        <ele>131.6</ele>
        <time>2023-09-16T09:32:32Z</time>
      </trkpt>
      <trkpt lat="48.14018" lon="3.31891">
        <ele>131.6</ele>
        <time>2023-09-16T09:32:36Z</time>
      </trkpt>
      <trkpt lat="48.14013" lon="3.31877">
        <ele>129</ele>
        <time>2023-09-16T09:32:41Z</time>
      </trkpt>
      <trkpt lat="48.14012" lon="3.31874">
        <ele>128.4</ele>
        <time>2023-09-16T09:32:42Z</time>
      </trkpt>
      <trkpt lat="48.14011" lon="3.31858">
        <ele>125.8</ele>
        <time>2023-09-16T09:32:45Z</time>
      </trkpt>
      <trkpt lat="48.14008" lon="3.31837">
        <ele>123</ele>
        <time>2023-09-16T09:32:49Z</time>
      </trkpt>
      <trkpt lat="48.14008" lon="3.31828">
        <ele>121.8</ele>
        <time>2023-09-16T09:32:51Z</time>
      </trkpt>
      <trkpt lat="48.14009" lon="3.31825">
        <ele>121.4</ele>
        <time>2023-09-16T09:32:56Z</time>
      </trkpt>
      <trkpt lat="48.14009" lon="3.3182">
        <ele>120.7</ele>
        <time>2023-09-16T09:33:03Z</time>
      </trkpt>
      <trkpt lat="48.14009" lon="3.31819">
        <ele>120.6</ele>
        <time>2023-09-16T09:33:06Z</time>
      </trkpt>
      <trkpt lat="48.14011" lon="3.31815">
        <ele>120.2</ele>
        <time>2023-09-16T09:33:08Z</time>
      </trkpt>
      <trkpt lat="48.1401" lon="3.31797">
        <ele>117.7</ele>
        <time>2023-09-16T09:33:12Z</time>
      </trkpt>
      <trkpt lat="48.14009" lon="3.31788">
        <ele>116.5</ele>
        <time>2023-09-16T09:33:13Z</time>
      </trkpt>
      <trkpt lat="48.14004" lon="3.31764">
        <ele>112.7</ele>
        <time>2023-09-16T09:33:16Z</time>
      </trkpt>
      <trkpt lat="48.14002" lon="3.31727">
        <ele>106.9</ele>
        <time>2023-09-16T09:33:20Z</time>
      </trkpt>
      <trkpt lat="48.14003" lon="3.31689">
        <ele>103.5</ele>
        <time>2023-09-16T09:33:23Z</time>
      </trkpt>
      <trkpt lat="48.14004" lon="3.31641">
        <ele>98.4</ele>
        <time>2023-09-16T09:33:27Z</time>
      </trkpt>
      <trkpt lat="48.14005" lon="3.31598">
        <ele>94.7</ele>
        <time>2023-09-16T09:33:29Z</time>
      </trkpt>
    </trkseg>
  </trk>
</gpx>